createdAt,value
2023-03-07T00:00:16.138Z,18.70
2023-03-07T00:03:09.851Z,19.70
2023-03-07T00:05:43.640Z,17.90
2023-03-07T00:08:17.589Z,19.10
2023-03-07T00:10:51.180Z,19.30
2023-03-07T00:13:26.092Z,18.30
2023-03-07T00:16:04.231Z,19.50
2023-03-07T00:18:39.556Z,20.00
2023-03-07T00:21:15.368Z,19.60
2023-03-07T00:23:50.167Z,20.30
2023-03-07T00:26:25.884Z,20.50
2023-03-07T00:28:59.633Z,20.90
2023-03-07T00:31:33.432Z,20.30
2023-03-07T00:34:07.531Z,20.50
2023-03-07T00:36:40.957Z,20.00
2023-03-07T00:39:14.977Z,19.60
2023-03-07T00:41:48.865Z,20.00
2023-03-07T00:44:22.863Z,20.90
2023-03-07T00:46:57.103Z,22.00
2023-03-07T00:49:31.375Z,22.00
2023-03-07T00:52:05.273Z,21.20
2023-03-07T00:54:38.986Z,22.50
2023-03-07T00:57:12.500Z,21.80
2023-03-07T00:59:46.645Z,22.10
2023-03-07T01:02:20.740Z,21.80
2023-03-07T01:04:58.295Z,21.50
2023-03-07T01:07:32.829Z,23.00
2023-03-07T01:10:07.187Z,20.90
2023-03-07T01:12:41.034Z,21.00
2023-03-07T01:15:15.660Z,19.30
2023-03-07T01:17:49.559Z,21.50
2023-03-07T01:20:23.693Z,21.10
2023-03-07T01:22:57.788Z,19.80
2023-03-07T01:25:31.943Z,17.80
2023-03-07T01:28:06.301Z,17.40
2023-03-07T01:30:40.193Z,19.50
2023-03-07T01:33:13.756Z,16.60
2023-03-07T01:35:47.704Z,17.70
2023-03-07T01:38:21.822Z,17.10
2023-03-07T01:40:56.609Z,17.60
2023-03-07T01:43:33.477Z,18.30
2023-03-07T01:46:36.264Z,16.50
2023-03-07T01:49:13.671Z,18.10
2023-03-07T01:51:50.033Z,17.40
2023-03-07T01:54:24.995Z,19.00
2023-03-07T01:57:00.242Z,19.30
2023-03-07T01:59:37.233Z,19.70
2023-03-07T02:02:17.404Z,18.60
2023-03-07T02:04:56.691Z,18.90
2023-03-07T02:07:35.562Z,20.10
2023-03-07T02:10:11.737Z,22.50
2023-03-07T02:12:46.071Z,21.00
2023-03-07T02:15:20.152Z,21.40
2023-03-07T02:17:54.109Z,21.80
2023-03-07T02:20:38.280Z,21.30
2023-03-07T02:23:23.948Z,21.70
2023-03-07T02:26:01.809Z,23.30
2023-03-07T02:28:36.531Z,23.20
2023-03-07T02:31:12.073Z,24.80
2023-03-07T02:33:46.009Z,23.70
2023-03-07T02:36:24.218Z,23.40
2023-03-07T02:39:08.289Z,24.10
2023-03-07T02:41:43.080Z,26.50
2023-03-07T02:44:24.284Z,22.30
2023-03-07T02:46:57.948Z,23.30
2023-03-07T02:49:33.257Z,24.80
2023-03-07T02:52:07.601Z,27.30
2023-03-07T02:54:41.373Z,28.50
2023-03-07T02:57:15.530Z,28.10
2023-03-07T02:59:49.577Z,27.00
2023-03-07T03:02:23.335Z,27.90
2023-03-07T03:04:56.912Z,27.50
2023-03-07T03:07:31.170Z,29.00
2023-03-07T03:10:05.648Z,29.50
2023-03-07T03:12:39.292Z,30.60
2023-03-07T03:15:14.817Z,30.20
2023-03-07T03:17:48.350Z,29.30
2023-03-07T03:20:22.094Z,29.50
2023-03-07T03:22:56.695Z,27.80
2023-03-07T03:25:30.354Z,27.60
2023-03-07T03:28:04.466Z,29.10
2023-03-07T03:30:38.171Z,27.10
2023-03-07T03:33:12.130Z,27.60
2023-03-07T03:35:46.196Z,25.80
2023-03-07T03:38:20.250Z,28.50
2023-03-07T03:40:55.048Z,28.20
2023-03-07T03:43:28.949Z,26.20
2023-03-07T03:46:02.592Z,27.20
2023-03-07T03:48:36.520Z,28.70
2023-03-07T03:51:12.680Z,28.10
2023-03-07T03:53:46.476Z,28.70
2023-03-07T03:56:21.749Z,27.60
2023-03-07T03:58:57.041Z,27.10
2023-03-07T04:01:31.638Z,28.60
2023-03-07T04:04:05.241Z,30.10
2023-03-07T04:06:39.073Z,28.90
2023-03-07T04:09:12.752Z,29.50
2023-03-07T04:11:48.931Z,27.90
2023-03-07T04:14:23.223Z,32.20
2023-03-07T04:16:57.820Z,29.50
2023-03-07T04:19:32.158Z,30.90
2023-03-07T04:22:05.629Z,33.20
2023-03-07T04:24:39.838Z,34.60
2023-03-07T04:27:13.990Z,33.30
2023-03-07T04:29:47.758Z,32.70
2023-03-07T04:32:26.481Z,34.70
2023-03-07T04:35:00.505Z,35.90
2023-03-07T04:37:34.859Z,33.30
2023-03-07T04:40:09.860Z,30.90
2023-03-07T04:42:43.586Z,34.30
2023-03-07T04:45:18.465Z,33.00
2023-03-07T04:47:52.176Z,34.80
2023-03-07T04:50:26.362Z,31.10
2023-03-07T04:53:00.435Z,33.20
2023-03-07T04:55:34.041Z,31.70
2023-03-07T04:58:11.346Z,30.20
2023-03-07T05:00:47.226Z,33.30
2023-03-07T05:03:20.711Z,31.80
2023-03-07T05:05:54.302Z,28.10
2023-03-07T05:08:28.295Z,28.10
2023-03-07T05:11:02.248Z,28.60
2023-03-07T05:13:37.027Z,22.70
2023-03-07T05:16:11.768Z,25.90
2023-03-07T05:18:45.633Z,25.80
2023-03-07T05:21:19.735Z,25.30
2023-03-07T05:23:53.597Z,24.10
2023-03-07T05:26:27.302Z,22.60
2023-03-07T05:29:01.165Z,25.10
2023-03-07T05:31:34.922Z,23.80
2023-03-07T05:34:11.856Z,24.00
2023-03-07T05:36:45.998Z,26.40
2023-03-07T05:39:20.135Z,27.10
2023-03-07T05:41:53.495Z,26.70
2023-03-07T05:44:27.861Z,25.90
2023-03-07T05:47:02.613Z,25.40
2023-03-07T05:49:36.602Z,26.80
2023-03-07T05:52:11.309Z,29.70
2023-03-07T05:54:45.061Z,29.00
2023-03-07T05:57:19.208Z,29.10
2023-03-07T05:59:53.133Z,26.30
2023-03-07T06:02:27.171Z,27.80
2023-03-07T06:05:01.249Z,28.60
2023-03-07T06:07:35.053Z,27.90
2023-03-07T06:10:11.870Z,29.00
2023-03-07T06:12:54.888Z,25.70
2023-03-07T06:15:32.381Z,27.80
2023-03-07T06:18:11.502Z,26.80
2023-03-07T06:20:46.644Z,25.90
2023-03-07T06:23:28.955Z,25.60
2023-03-07T06:26:08.299Z,20.30
2023-03-07T06:28:46.712Z,23.40
2023-03-07T06:31:24.527Z,22.80
2023-03-07T06:33:58.377Z,24.60
2023-03-07T06:36:32.637Z,24.00
2023-03-07T06:39:08.095Z,24.00
2023-03-07T06:41:42.138Z,24.20
2023-03-07T06:44:16.256Z,24.40
2023-03-07T06:46:50.419Z,21.60
2023-03-07T06:49:26.009Z,21.60
2023-03-07T06:52:00.695Z,23.00
2023-03-07T06:54:35.226Z,20.00
2023-03-07T06:57:09.494Z,22.90
2023-03-07T06:59:43.953Z,25.00
2023-03-07T07:02:18.457Z,25.40
2023-03-07T07:04:52.498Z,26.20
2023-03-07T07:07:27.039Z,23.80
2023-03-07T07:10:01.756Z,22.00
2023-03-07T07:12:36.386Z,22.40
2023-03-07T07:15:12.193Z,23.60
2023-03-07T07:17:46.008Z,21.20
2023-03-07T07:20:21.068Z,19.70
2023-03-07T07:22:54.792Z,18.50
2023-03-07T07:25:28.298Z,21.60
2023-03-07T07:28:02.101Z,20.30
2023-03-07T07:30:35.921Z,19.30
2023-03-07T07:33:10.063Z,18.70
2023-03-07T07:35:46.529Z,20.00
2023-03-07T07:38:20.476Z,19.80
2023-03-07T07:40:54.200Z,21.70
2023-03-07T07:43:28.239Z,23.70
2023-03-07T07:46:09.663Z,22.50
2023-03-07T07:48:43.955Z,22.10
2023-03-07T07:51:18.748Z,23.00
2023-03-07T07:53:53.488Z,22.40
2023-03-07T07:56:27.436Z,21.30
2023-03-07T07:59:01.970Z,22.10
2023-03-07T08:01:36.282Z,23.20
2023-03-07T08:04:10.094Z,21.40
2023-03-07T08:06:44.601Z,22.30
2023-03-07T08:09:18.558Z,22.70
2023-03-07T08:11:52.072Z,22.00
2023-03-07T08:14:25.991Z,21.20
2023-03-07T08:17:00.116Z,20.90
2023-03-07T08:19:34.108Z,22.20
2023-03-07T08:22:08.264Z,22.20
2023-03-07T08:24:42.133Z,20.20
2023-03-07T08:27:15.501Z,19.50
2023-03-07T08:29:51.783Z,19.80
2023-03-07T08:32:26.135Z,19.70
2023-03-07T08:34:59.854Z,20.30
2023-03-07T08:37:33.649Z,20.20
2023-03-07T08:40:08.839Z,20.60
2023-03-07T08:42:42.784Z,21.80
2023-03-07T08:45:17.019Z,20.10
2023-03-07T08:47:50.425Z,20.60
2023-03-07T08:50:24.556Z,21.70
2023-03-07T08:52:58.870Z,20.50
2023-03-07T08:55:32.386Z,23.00
2023-03-07T08:58:06.391Z,21.40
2023-03-07T09:00:40.467Z,21.60
2023-03-07T09:03:14.234Z,20.50
2023-03-07T09:05:47.881Z,21.50
2023-03-07T09:08:21.864Z,22.00
2023-03-07T09:10:55.808Z,20.70
2023-03-07T09:13:29.654Z,17.40
2023-03-07T09:16:05.653Z,22.80
2023-03-07T09:18:40.294Z,21.10
2023-03-07T09:21:14.554Z,20.60
2023-03-07T09:23:48.766Z,21.20
2023-03-07T09:26:22.852Z,20.00
2023-03-07T09:28:56.332Z,20.70
2023-03-07T09:31:30.377Z,19.90
2023-03-07T09:34:05.882Z,20.10
2023-03-07T09:36:39.582Z,21.70
2023-03-07T09:39:14.934Z,20.90
2023-03-07T09:42:01.493Z,20.30
2023-03-07T09:45:13.951Z,20.80
2023-03-07T09:48:24.745Z,21.00
2023-03-07T09:51:07.615Z,20.90
2023-03-07T09:53:46.918Z,21.60
2023-03-07T09:56:27.513Z,20.60
2023-03-07T09:59:21.941Z,19.20
2023-03-07T10:02:06.367Z,21.70
2023-03-07T10:04:50.954Z,22.50
2023-03-07T10:07:27.245Z,21.60
2023-03-07T10:10:04.161Z,22.40
2023-03-07T10:13:03.757Z,23.00
2023-03-07T10:15:50.055Z,22.40
2023-03-07T10:18:43.927Z,21.80
2023-03-07T10:21:27.674Z,21.40
2023-03-07T10:24:23.760Z,22.50
2023-03-07T10:27:06.928Z,24.00
2023-03-07T10:29:47.266Z,24.00
2023-03-07T10:32:31.987Z,24.00
2023-03-07T10:35:19.406Z,24.30
2023-03-07T10:37:57.204Z,24.10
2023-03-07T10:40:36.648Z,23.90
2023-03-07T10:43:19.262Z,23.40
2023-03-07T10:46:24.656Z,23.30
2023-03-07T10:49:10.810Z,23.80
2023-03-07T10:51:55.724Z,21.50
2023-03-07T10:54:33.052Z,23.50
2023-03-07T10:57:15.892Z,21.60
2023-03-07T10:59:50.674Z,23.60
2023-03-07T11:02:41.425Z,23.70
2023-03-07T11:05:33.228Z,23.60
2023-03-07T11:08:28.295Z,24.80
2023-03-07T11:11:02.869Z,24.80
2023-03-07T11:13:36.922Z,27.70
2023-03-07T11:16:21.108Z,26.50
2023-03-07T11:18:55.311Z,25.60
2023-03-07T11:21:33.754Z,25.70
2023-03-07T11:24:22.412Z,26.10
2023-03-07T11:27:00.157Z,24.20
2023-03-07T11:29:35.247Z,24.80
2023-03-07T11:32:18.269Z,25.90
2023-03-07T11:34:55.055Z,26.40
2023-03-07T11:37:36.216Z,26.10
2023-03-07T11:40:24.647Z,23.20
2023-03-07T11:45:43.704Z,25.30
2023-03-07T11:48:29.435Z,26.40
2023-03-07T11:51:05.025Z,23.40
2023-03-07T11:54:03.415Z,23.70
2023-03-07T11:56:42.490Z,23.40
2023-03-07T11:59:46.611Z,24.20
2023-03-07T12:02:42.049Z,23.90
2023-03-07T12:05:25.636Z,24.60
2023-03-07T12:08:20.280Z,24.00
2023-03-07T12:11:03.889Z,22.10
2023-03-07T12:13:50.362Z,22.30
2023-03-07T12:16:33.293Z,20.60
2023-03-07T12:19:34.748Z,21.30
2023-03-07T12:22:41.102Z,20.40
2023-03-07T12:25:25.187Z,19.60
2023-03-07T12:28:08.285Z,19.60
2023-03-07T12:30:59.480Z,19.30
2023-03-07T12:33:49.966Z,21.20
2023-03-07T12:36:32.970Z,19.70
2023-03-07T12:39:17.048Z,27.00
2023-03-07T12:42:03.671Z,21.60
2023-03-07T12:44:46.783Z,22.80
2023-03-07T12:47:27.320Z,17.60
2023-03-07T12:50:07.322Z,19.30
2023-03-07T12:52:46.852Z,19.40
2023-03-07T12:55:25.611Z,16.10
2023-03-07T13:00:49.307Z,18.00
2023-03-07T13:03:37.339Z,17.90
2023-03-07T13:06:18.258Z,16.30
2023-03-07T13:08:55.068Z,16.50
2023-03-07T13:11:31.974Z,17.40
2023-03-07T13:14:07.172Z,15.30
2023-03-07T13:16:51.758Z,17.60
2023-03-07T13:19:52.507Z,16.90
2023-03-07T13:23:00.415Z,17.30
2023-03-07T13:25:57.667Z,17.20
2023-03-07T13:28:52.111Z,16.60
2023-03-07T13:31:44.482Z,15.40
2023-03-07T13:34:51.911Z,16.40
2023-03-07T13:37:54.308Z,16.30
2023-03-07T13:40:49.418Z,16.60
2023-03-07T13:44:05.475Z,16.40
2023-03-07T13:47:01.860Z,16.30
2023-03-07T13:49:51.976Z,17.30
2023-03-07T13:52:47.664Z,18.20
2023-03-07T13:55:28.614Z,16.60
2023-03-07T13:58:17.165Z,17.00
2023-03-07T14:01:05.457Z,17.00
2023-03-07T14:03:44.073Z,16.10
2023-03-07T14:06:21.708Z,16.20
2023-03-07T14:08:56.035Z,15.70
2023-03-07T14:11:35.595Z,16.60
2023-03-07T14:14:36.128Z,16.20
2023-03-07T14:17:23.577Z,15.50
2023-03-07T14:20:12.111Z,15.70
2023-03-07T14:23:05.858Z,16.00
2023-03-07T14:25:45.085Z,15.60
2023-03-07T14:28:29.794Z,18.80
2023-03-07T14:31:08.398Z,15.50
2023-03-07T14:33:43.213Z,16.10
2023-03-07T14:36:23.710Z,14.10
2023-03-07T14:39:02.455Z,14.40
2023-03-07T14:41:46.531Z,13.30
2023-03-07T14:44:40.875Z,13.10
2023-03-07T14:47:38.289Z,14.70
2023-03-07T14:50:19.073Z,13.00
2023-03-07T14:52:58.033Z,11.50
2023-03-07T14:55:37.556Z,11.90
2023-03-07T14:58:21.004Z,12.20
2023-03-07T15:01:04.033Z,11.40
2023-03-07T15:03:37.945Z,12.40
2023-03-07T15:06:18.758Z,11.90
2023-03-07T15:08:53.623Z,14.20
2023-03-07T15:11:33.318Z,11.70
2023-03-07T15:14:10.254Z,14.20
2023-03-07T15:16:49.929Z,14.20
2023-03-07T15:19:31.642Z,12.20
2023-03-07T15:22:11.159Z,11.10
2023-03-07T15:24:49.170Z,15.40
2023-03-07T15:27:28.031Z,10.80
2023-03-07T15:30:03.747Z,11.40
2023-03-07T15:32:39.496Z,11.10
2023-03-07T15:35:20.539Z,11.40
2023-03-07T15:37:58.902Z,11.50
2023-03-07T15:40:35.095Z,10.50
2023-03-07T15:43:28.792Z,11.50
2023-03-07T15:46:09.227Z,11.00
2023-03-07T15:48:49.471Z,12.70
2023-03-07T15:51:25.310Z,12.00
2023-03-07T15:54:12.420Z,12.40
2023-03-07T15:56:46.615Z,12.30
2023-03-07T15:59:26.990Z,11.70
2023-03-07T16:02:23.426Z,12.10
2023-03-07T16:04:59.065Z,12.90
2023-03-07T16:07:34.481Z,11.60
2023-03-07T16:10:09.502Z,11.70
2023-03-07T16:12:46.732Z,11.60
2023-03-07T16:15:23.225Z,12.10
2023-03-07T16:17:59.100Z,12.00
2023-03-07T16:20:33.810Z,11.30
2023-03-07T16:23:13.632Z,11.70
2023-03-07T16:25:49.221Z,11.70
2023-03-07T16:28:23.037Z,11.70
2023-03-07T16:30:57.549Z,11.90
2023-03-07T16:33:32.949Z,14.00
2023-03-07T16:36:07.221Z,13.00
2023-03-07T16:38:41.822Z,13.00
2023-03-07T16:41:19.099Z,12.80
2023-03-07T16:43:58.170Z,14.50
2023-03-07T16:46:32.376Z,11.70
2023-03-07T16:49:09.747Z,12.40
2023-03-07T16:51:47.298Z,12.40
2023-03-07T16:54:25.688Z,12.00
2023-03-07T16:57:00.203Z,12.40
2023-03-07T16:59:39.564Z,12.90
2023-03-07T17:02:19.945Z,12.80
2023-03-07T17:04:55.325Z,12.50
2023-03-07T17:07:31.682Z,12.00
2023-03-07T17:10:06.845Z,12.20
2023-03-07T17:12:44.358Z,12.10
2023-03-07T17:15:26.894Z,12.00
2023-03-07T17:18:03.161Z,12.60
2023-03-07T17:20:42.150Z,12.30
2023-03-07T17:23:23.029Z,12.80
2023-03-07T17:26:00.561Z,13.10
2023-03-07T17:28:38.044Z,12.60
2023-03-07T17:31:18.119Z,12.80
2023-03-07T17:33:53.989Z,12.90
2023-03-07T17:36:30.133Z,13.50
2023-03-07T17:39:12.122Z,15.20
2023-03-07T17:41:47.811Z,15.60
2023-03-07T17:44:24.575Z,14.10
2023-03-07T17:47:01.393Z,14.50
2023-03-07T17:49:40.922Z,13.70
2023-03-07T17:52:17.789Z,14.00
2023-03-07T17:54:53.439Z,13.60
2023-03-07T17:57:31.069Z,13.00
2023-03-07T18:00:13.634Z,13.60
2023-03-07T18:02:53.697Z,20.20
2023-03-07T18:05:34.660Z,15.50
2023-03-07T18:08:12.041Z,12.60
2023-03-07T18:10:51.584Z,12.30
2023-03-07T18:13:34.001Z,12.30
2023-03-07T18:16:13.937Z,13.60
2023-03-07T18:18:59.458Z,11.30
2023-03-07T18:21:40.081Z,13.70
2023-03-07T18:24:27.200Z,13.00
2023-03-07T18:27:11.323Z,13.60
2023-03-07T18:29:49.463Z,12.80
2023-03-07T18:35:07.058Z,12.10
2023-03-07T18:37:47.069Z,11.90
2023-03-07T18:40:29.451Z,15.30
2023-03-07T18:43:09.400Z,13.40
2023-03-07T18:45:49.371Z,13.90
2023-03-07T18:48:26.316Z,12.50
2023-03-07T18:51:05.230Z,11.60
2023-03-07T18:53:43.122Z,12.70
2023-03-07T18:56:20.627Z,11.40
2023-03-07T18:59:00.957Z,12.40
2023-03-07T19:01:38.315Z,12.30
2023-03-07T19:04:16.540Z,10.90
2023-03-07T19:07:01.771Z,10.90
2023-03-07T19:09:38.505Z,10.90
2023-03-07T19:12:22.100Z,12.00
2023-03-07T19:15:00.172Z,10.90
2023-03-07T19:17:40.452Z,12.10
2023-03-07T19:20:18.793Z,12.10
2023-03-07T19:22:58.236Z,11.50
2023-03-07T19:25:38.525Z,12.00
2023-03-07T19:28:23.984Z,10.70
2023-03-07T19:31:09.402Z,10.80
2023-03-07T19:33:50.565Z,10.70
2023-03-07T19:36:29.165Z,11.00
2023-03-07T19:39:10.530Z,11.60
2023-03-07T19:41:49.111Z,9.70
2023-03-07T19:44:30.535Z,10.10
2023-03-07T19:47:17.841Z,10.40
2023-03-07T19:49:54.456Z,10.20
2023-03-07T19:52:37.157Z,10.70
2023-03-07T19:55:16.390Z,10.10
2023-03-07T19:57:59.034Z,9.50
2023-03-07T20:00:36.093Z,10.50
2023-03-07T20:03:18.442Z,9.70
2023-03-07T20:05:56.210Z,10.50
2023-03-07T20:08:35.481Z,9.90
2023-03-07T20:11:20.630Z,8.80
2023-03-07T20:13:59.669Z,9.40
2023-03-07T20:16:44.588Z,9.70
2023-03-07T20:19:23.719Z,9.90
2023-03-07T20:22:12.510Z,9.80
2023-03-07T20:24:54.668Z,8.60
2023-03-07T20:27:32.601Z,9.60
2023-03-07T20:30:22.023Z,9.40
2023-03-07T20:33:02.389Z,8.20
2023-03-07T20:35:40.426Z,9.20
2023-03-07T20:38:20.508Z,8.30
2023-03-07T20:41:05.197Z,8.60
2023-03-07T20:43:44.234Z,8.20
2023-03-07T20:46:30.097Z,8.10
2023-03-07T20:49:09.415Z,7.90
2023-03-07T20:52:01.937Z,7.40
2023-03-07T20:54:39.092Z,7.90
2023-03-07T20:57:17.632Z,7.10
2023-03-07T21:02:29.455Z,7.00
2023-03-07T21:05:20.634Z,7.60
2023-03-07T21:07:55.352Z,7.20
2023-03-07T21:10:32.445Z,7.70
2023-03-07T21:13:14.632Z,6.80
2023-03-07T21:15:59.808Z,7.00
2023-03-07T21:18:37.087Z,7.00
2023-03-07T21:21:15.018Z,7.50
2023-03-07T21:23:53.297Z,7.00
2023-03-07T21:29:09.797Z,6.90
2023-03-07T21:31:48.592Z,6.80
2023-03-07T21:34:24.507Z,7.60
2023-03-07T21:36:59.428Z,7.20
2023-03-07T21:39:37.146Z,7.50
2023-03-07T21:42:11.971Z,7.10
2023-03-07T21:44:50.951Z,6.40
2023-03-07T21:47:25.620Z,7.00
2023-03-07T21:50:02.015Z,7.50
2023-03-07T21:52:37.904Z,6.80
2023-03-07T21:55:19.591Z,6.90
2023-03-07T21:57:54.024Z,7.60
2023-03-07T22:00:30.665Z,7.00
2023-03-07T22:03:04.871Z,7.00
2023-03-07T22:05:41.062Z,7.10
2023-03-07T22:08:16.259Z,7.30
2023-03-07T22:11:02.217Z,9.80
2023-03-07T22:13:37.117Z,7.40
2023-03-07T22:16:14.201Z,7.60
2023-03-07T22:18:57.350Z,6.30
2023-03-07T22:21:30.891Z,5.30
2023-03-07T22:24:04.701Z,4.50
2023-03-07T22:26:39.049Z,4.80
2023-03-07T22:29:12.958Z,4.40
2023-03-07T22:31:47.058Z,4.30
2023-03-07T22:34:20.664Z,3.60
2023-03-07T22:36:56.693Z,3.70
2023-03-07T22:39:30.205Z,3.30
2023-03-07T22:42:04.014Z,3.20
2023-03-07T22:44:38.065Z,2.30
2023-03-07T22:47:12.136Z,1.80
2023-03-07T22:49:46.138Z,2.00
2023-03-07T22:52:20.867Z,1.50
2023-03-07T22:54:56.744Z,1.30
2023-03-07T22:57:30.454Z,1.20
2023-03-07T23:00:04.951Z,1.50
2023-03-07T23:02:39.057Z,1.40
2023-03-07T23:05:13.589Z,1.70
2023-03-07T23:07:48.708Z,2.00
2023-03-07T23:10:23.025Z,2.00
2023-03-07T23:12:56.645Z,2.40
2023-03-07T23:15:30.814Z,2.70
2023-03-07T23:18:04.698Z,2.20
2023-03-07T23:20:39.934Z,1.90
2023-03-07T23:23:14.090Z,2.60
2023-03-07T23:25:47.847Z,2.80
2023-03-07T23:28:22.056Z,2.00
2023-03-07T23:30:55.884Z,1.90
2023-03-07T23:33:30.201Z,1.70
2023-03-07T23:36:04.375Z,1.60
2023-03-07T23:38:38.490Z,1.80
2023-03-07T23:41:12.337Z,1.90
2023-03-07T23:43:46.724Z,1.80
2023-03-07T23:46:20.803Z,2.00
2023-03-07T23:48:55.379Z,2.20
2023-03-07T23:51:29.182Z,1.90
2023-03-07T23:54:02.745Z,1.50
2023-03-07T23:56:36.660Z,1.90
2023-03-07T23:59:10.247Z,1.70
